createdAt,value
2019-04-30T00:01:55.761Z,84.00
2019-04-30T00:05:00.316Z,140.07
2019-04-30T00:08:07.857Z,120.43
2019-04-30T00:11:19.397Z,76.27
2019-04-30T00:14:25.042Z,106.23
2019-04-30T00:17:35.833Z,86.13
2019-04-30T00:20:45.287Z,79.20
2019-04-30T00:23:52.073Z,102.60
2019-04-30T00:26:59.595Z,98.77
2019-04-30T00:30:08.997Z,78.27
2019-04-30T00:33:22.029Z,85.10
2019-04-30T00:36:28.940Z,129.80
2019-04-30T00:39:35.512Z,79.10
2019-04-30T00:42:43.607Z,155.23
2019-04-30T00:45:51.297Z,99.70
2019-04-30T00:49:08.803Z,157.27
2019-04-30T00:52:08.211Z,142.77
2019-04-30T00:55:16.021Z,210.07
2019-04-30T00:58:28.808Z,104.37
2019-04-30T01:01:51.410Z,138.63
2019-04-30T01:05:05.355Z,240.93
2019-04-30T01:08:09.312Z,116.07
2019-04-30T01:11:16.994Z,116.70
2019-04-30T01:14:28.160Z,154.67
2019-04-30T01:17:34.877Z,160.63
2019-04-30T01:20:42.344Z,375.47
2019-04-30T01:23:54.564Z,128.13
2019-04-30T01:27:06.555Z,150.93
2019-04-30T01:30:13.332Z,229.70
2019-04-30T01:33:19.467Z,186.57
2019-04-30T01:36:26.947Z,200.37
2019-04-30T01:39:34.497Z,398.87
2019-04-30T01:42:48.062Z,229.20
2019-04-30T01:45:51.183Z,246.33
2019-04-30T01:48:59.473Z,300.50
2019-04-30T01:52:06.959Z,256.80
2019-04-30T01:55:14.566Z,296.00
2019-04-30T01:58:39.364Z,314.77
2019-04-30T02:01:48.717Z,324.63
2019-04-30T02:04:56.328Z,316.07
2019-04-30T02:08:03.909Z,340.87
2019-04-30T02:11:12.238Z,369.27
2019-04-30T02:14:19.861Z,383.43
2019-04-30T02:17:29.260Z,312.47
2019-04-30T02:20:38.421Z,309.90
2019-04-30T02:23:46.027Z,244.57
2019-04-30T02:26:53.522Z,244.83
2019-04-30T02:30:02.697Z,192.93
2019-04-30T02:33:10.843Z,215.23
2019-04-30T02:36:52.611Z,177.20
2019-04-30T02:40:00.988Z,146.03
2019-04-30T02:43:11.346Z,162.33
2019-04-30T02:46:20.621Z,163.90
2019-04-30T02:49:30.401Z,161.47
2019-04-30T02:52:40.448Z,139.20
2019-04-30T02:55:49.900Z,166.57
2019-04-30T02:58:57.163Z,168.77
2019-04-30T03:02:04.663Z,158.40
2019-04-30T03:05:13.608Z,160.00
2019-04-30T03:08:22.616Z,169.27
2019-04-30T03:11:30.432Z,183.30
2019-04-30T03:14:40.062Z,141.90
2019-04-30T03:18:09.998Z,150.23
2019-04-30T03:21:36.540Z,122.90
2019-04-30T03:24:44.007Z,109.90
2019-04-30T03:27:51.637Z,121.30
2019-04-30T03:31:03.998Z,116.07
2019-04-30T03:34:15.076Z,118.90
2019-04-30T03:37:19.839Z,113.20
2019-04-30T03:40:27.015Z,114.87
2019-04-30T03:43:34.440Z,91.33
2019-04-30T03:46:41.990Z,121.30
2019-04-30T03:49:50.460Z,100.73
2019-04-30T03:53:00.470Z,99.03
2019-04-30T03:56:09.353Z,103.37
2019-04-30T03:59:19.708Z,95.60
2019-04-30T04:02:40.802Z,89.80
2019-04-30T04:05:53.213Z,96.50
2019-04-30T04:09:22.155Z,76.13
2019-04-30T04:12:30.361Z,84.47
2019-04-30T04:15:40.002Z,92.17
2019-04-30T04:18:49.804Z,78.23
2019-04-30T04:21:56.389Z,75.47
2019-04-30T04:25:04.010Z,75.27
2019-04-30T04:28:13.749Z,69.93
2019-04-30T04:31:21.287Z,73.97
2019-04-30T04:34:30.319Z,72.97
2019-04-30T04:37:39.765Z,77.33
2019-04-30T04:40:49.997Z,71.00
2019-04-30T04:43:56.572Z,62.90
2019-04-30T04:47:04.085Z,56.40
2019-04-30T04:50:11.928Z,57.37
2019-04-30T04:53:19.802Z,61.10
2019-04-30T04:56:27.350Z,59.23
2019-04-30T04:59:34.901Z,55.00
2019-04-30T05:03:10.586Z,52.10
2019-04-30T05:06:21.753Z,46.33
2019-04-30T05:09:29.043Z,52.87
2019-04-30T05:12:37.950Z,51.57
2019-04-30T05:15:45.854Z,47.30
2019-04-30T05:18:55.686Z,45.87
2019-04-30T05:22:04.563Z,40.00
2019-04-30T05:25:15.001Z,39.93
2019-04-30T05:28:24.539Z,34.93
2019-04-30T05:31:33.938Z,33.50
2019-04-30T05:34:41.746Z,36.47
2019-04-30T05:37:49.593Z,33.60
2019-04-30T05:40:59.732Z,32.07
2019-04-30T05:44:08.935Z,32.93
2019-04-30T05:47:16.596Z,32.23
2019-04-30T05:50:24.263Z,32.40
2019-04-30T05:53:31.875Z,33.87
2019-04-30T05:56:40.542Z,28.30
2019-04-30T05:59:48.871Z,26.57
2019-04-30T06:02:59.494Z,27.23
2019-04-30T06:06:09.166Z,29.93
2019-04-30T06:09:31.625Z,27.20
2019-04-30T06:12:52.132Z,33.20
2019-04-30T06:16:11.820Z,30.87
2019-04-30T06:19:19.662Z,31.63
2019-04-30T06:22:29.140Z,28.43
2019-04-30T06:25:54.851Z,27.50
2019-04-30T06:28:46.228Z,26.20
2019-04-30T06:31:53.699Z,24.60
2019-04-30T06:35:01.357Z,26.83
2019-04-30T06:38:09.092Z,25.93
2019-04-30T06:41:16.754Z,23.60
2019-04-30T06:44:34.906Z,22.23
2019-04-30T06:47:33.578Z,20.30
2019-04-30T06:50:41.120Z,23.67
2019-04-30T06:53:49.514Z,21.27
2019-04-30T06:56:59.594Z,22.27
2019-04-30T07:00:09.835Z,21.53
2019-04-30T07:03:19.168Z,20.67
2019-04-30T07:06:31.846Z,21.70
2019-04-30T07:10:00.682Z,21.93
2019-04-30T07:13:18.894Z,23.87
2019-04-30T07:16:29.664Z,21.83
2019-04-30T07:19:52.840Z,21.77
2019-04-30T07:22:52.407Z,19.20
2019-04-30T07:25:58.972Z,20.17
2019-04-30T07:29:05.789Z,18.67
2019-04-30T07:32:13.363Z,25.23
2019-04-30T07:35:20.870Z,27.93
2019-04-30T07:38:29.526Z,25.60
2019-04-30T07:41:40.241Z,22.63
2019-04-30T07:44:49.999Z,21.07
2019-04-30T07:47:59.207Z,22.77
2019-04-30T07:51:10.445Z,22.03
2019-04-30T07:54:18.823Z,21.60
2019-04-30T07:57:26.193Z,22.90
2019-04-30T08:00:33.733Z,24.53
2019-04-30T08:04:00.050Z,19.90
2019-04-30T08:07:09.511Z,18.67
2019-04-30T08:10:18.760Z,19.30
2019-04-30T08:13:28.877Z,17.23
2019-04-30T08:16:35.608Z,17.40
2019-04-30T08:19:43.096Z,17.17
2019-04-30T08:22:50.601Z,18.37
2019-04-30T08:25:58.720Z,15.37
2019-04-30T08:29:06.409Z,16.37
2019-04-30T08:32:13.909Z,16.77
2019-04-30T08:35:21.574Z,15.60
2019-04-30T08:38:30.049Z,15.73
2019-04-30T08:41:39.259Z,13.03
2019-04-30T08:44:48.539Z,16.60
2019-04-30T08:47:58.985Z,17.57
2019-04-30T08:51:06.829Z,16.50
2019-04-30T08:54:15.066Z,17.87
2019-04-30T08:57:22.691Z,19.23
2019-04-30T09:00:30.149Z,15.90
2019-04-30T09:03:39.300Z,15.27
2019-04-30T09:06:48.842Z,15.23
2019-04-30T09:09:56.230Z,16.67
2019-04-30T09:13:03.886Z,14.57
2019-04-30T09:16:11.440Z,15.23
2019-04-30T09:19:21.268Z,16.40
2019-04-30T09:22:29.376Z,17.27
2019-04-30T09:25:37.452Z,15.63
2019-04-30T09:28:45.063Z,13.73
2019-04-30T09:31:52.538Z,10.57
2019-04-30T09:35:00.052Z,16.80
2019-04-30T09:38:09.061Z,12.93
2019-04-30T09:41:16.966Z,14.23
2019-04-30T09:44:26.300Z,12.47
2019-04-30T09:47:33.746Z,12.40
2019-04-30T09:50:41.326Z,14.33
2019-04-30T09:53:56.896Z,14.07
2019-04-30T09:56:58.995Z,13.37
2019-04-30T10:00:09.313Z,14.30
2019-04-30T10:03:19.545Z,13.10
2019-04-30T10:06:38.498Z,18.37
2019-04-30T10:09:35.497Z,12.93
2019-04-30T10:12:43.016Z,14.07
2019-04-30T10:16:15.437Z,15.33
2019-04-30T10:19:23.046Z,12.40
2019-04-30T10:22:30.620Z,15.30
2019-04-30T10:25:38.110Z,13.77
2019-04-30T10:28:46.970Z,13.83
2019-04-30T10:31:55.312Z,18.67
2019-04-30T10:35:02.830Z,12.40
2019-04-30T10:38:10.378Z,13.37
2019-04-30T10:41:18.782Z,12.67
2019-04-30T10:44:29.752Z,12.70
2019-04-30T10:47:36.820Z,13.63
2019-04-30T10:50:45.411Z,15.17
2019-04-30T10:53:52.922Z,14.53
2019-04-30T10:57:00.470Z,13.40
2019-04-30T11:00:13.164Z,20.13
2019-04-30T11:03:23.017Z,16.57
2019-04-30T11:06:29.780Z,13.77
2019-04-30T11:09:39.352Z,13.77
2019-04-30T11:12:47.077Z,12.90
2019-04-30T11:15:54.608Z,15.90
2019-04-30T11:19:03.453Z,16.23
2019-04-30T11:22:11.221Z,13.27
2019-04-30T11:25:19.806Z,10.93
2019-04-30T11:28:28.679Z,10.77
2019-04-30T11:31:54.282Z,10.70
2019-04-30T11:35:01.889Z,11.20
2019-04-30T11:38:09.410Z,13.00
2019-04-30T11:41:29.817Z,15.67
2019-04-30T11:44:30.863Z,15.80
2019-04-30T11:47:36.800Z,14.10
2019-04-30T11:50:44.479Z,15.20
2019-04-30T11:53:52.148Z,16.27
2019-04-30T11:56:59.701Z,14.30
2019-04-30T12:00:10.756Z,13.80
2019-04-30T12:03:19.146Z,15.13
2019-04-30T12:06:28.428Z,15.60
2019-04-30T12:09:54.812Z,13.00
2019-04-30T12:13:04.623Z,13.53
2019-04-30T12:16:13.272Z,15.33
2019-04-30T12:19:20.996Z,13.30
2019-04-30T12:22:29.605Z,14.27
2019-04-30T12:25:38.830Z,17.20
2019-04-30T12:28:47.553Z,15.63
2019-04-30T12:31:55.186Z,16.63
2019-04-30T12:35:02.666Z,17.77
2019-04-30T12:38:10.273Z,14.10
2019-04-30T12:41:18.950Z,12.77
2019-04-30T12:44:26.465Z,16.00
2019-04-30T12:47:39.392Z,15.90
2019-04-30T12:51:08.473Z,13.67
2019-04-30T12:54:45.653Z,18.97
2019-04-30T12:57:59.073Z,13.43
2019-04-30T13:01:04.618Z,13.23
2019-04-30T13:04:12.242Z,15.47
2019-04-30T13:07:20.926Z,16.03
2019-04-30T13:10:29.320Z,16.57
2019-04-30T13:13:40.040Z,14.10
2019-04-30T13:16:46.609Z,12.33
2019-04-30T13:19:54.181Z,9.20
2019-04-30T13:23:01.682Z,16.20
2019-04-30T13:26:09.701Z,19.67
2019-04-30T13:29:21.622Z,17.03
2019-04-30T13:32:32.978Z,18.93
2019-04-30T13:35:42.577Z,10.83
2019-04-30T13:39:11.705Z,13.20
2019-04-30T13:42:35.891Z,15.30
2019-04-30T13:45:43.360Z,12.10
2019-04-30T13:48:50.882Z,14.03
2019-04-30T13:51:58.399Z,14.33
2019-04-30T13:55:10.706Z,13.87
2019-04-30T13:58:16.488Z,20.43
2019-04-30T14:01:23.945Z,14.10
2019-04-30T14:04:53.384Z,18.50
2019-04-30T14:08:25.636Z,15.43
2019-04-30T14:11:33.134Z,14.03
2019-04-30T14:14:41.208Z,18.17
2019-04-30T14:17:49.864Z,13.67
2019-04-30T14:21:00.770Z,29.73
2019-04-30T14:24:06.822Z,15.40
2019-04-30T14:27:14.294Z,12.63
2019-04-30T14:30:21.933Z,14.03
2019-04-30T14:33:29.894Z,28.13
2019-04-30T14:36:39.202Z,16.70
2019-04-30T14:39:46.769Z,24.83
2019-04-30T14:43:04.613Z,24.77
2019-04-30T14:46:31.663Z,22.40
2019-04-30T14:50:06.202Z,20.23
2019-04-30T14:53:31.572Z,14.23
2019-04-30T14:56:45.032Z,13.60
2019-04-30T15:00:11.376Z,14.30
2019-04-30T15:03:19.550Z,19.47
2019-04-30T15:06:27.145Z,23.57
2019-04-30T15:09:34.745Z,21.93
2019-04-30T15:12:42.346Z,16.50
2019-04-30T15:15:50.028Z,14.20
2019-04-30T15:18:57.693Z,20.93
2019-04-30T15:22:05.451Z,18.57
2019-04-30T15:25:13.152Z,13.40
2019-04-30T15:28:20.734Z,16.13
2019-04-30T15:31:29.666Z,13.70
2019-04-30T15:34:40.813Z,18.13
2019-04-30T15:37:48.707Z,16.90
2019-04-30T15:40:57.852Z,174.73
2019-04-30T15:44:08.337Z,15.50
2019-04-30T15:47:18.962Z,17.07
2019-04-30T15:50:26.836Z,16.20
2019-04-30T15:53:34.466Z,17.73
2019-04-30T15:56:43.804Z,13.77
2019-04-30T15:59:51.576Z,18.50
2019-04-30T16:03:04.547Z,19.73
2019-04-30T16:06:12.322Z,22.77
2019-04-30T16:09:28.444Z,20.80
2019-04-30T16:12:48.599Z,16.30
2019-04-30T16:15:55.724Z,23.57
2019-04-30T16:19:03.224Z,28.27
2019-04-30T16:22:10.747Z,28.50
2019-04-30T16:25:20.803Z,18.80
2019-04-30T16:28:29.552Z,19.20
2019-04-30T16:31:39.055Z,25.80
2019-04-30T16:34:46.259Z,26.47
2019-04-30T16:37:53.712Z,29.33
2019-04-30T16:41:01.683Z,21.10
2019-04-30T16:44:09.288Z,17.50
2019-04-30T16:47:17.186Z,21.77
2019-04-30T16:50:24.744Z,18.30
2019-04-30T16:53:32.556Z,25.90
2019-04-30T16:56:40.122Z,23.63
2019-04-30T16:59:49.810Z,23.40
2019-04-30T17:03:01.713Z,20.13
2019-04-30T17:06:16.160Z,27.63
2019-04-30T17:09:35.239Z,30.13
2019-04-30T17:13:04.812Z,29.93
2019-04-30T17:16:20.464Z,28.83
2019-04-30T17:19:29.236Z,29.63
2019-04-30T17:22:39.346Z,25.23
2019-04-30T17:25:46.280Z,24.50
2019-04-30T17:28:54.102Z,26.97
2019-04-30T17:32:01.829Z,24.87
2019-04-30T17:35:11.040Z,37.60
2019-04-30T17:38:19.714Z,39.77
2019-04-30T17:41:27.638Z,43.37
2019-04-30T17:44:35.393Z,32.10
2019-04-30T17:47:43.281Z,33.77
2019-04-30T17:50:51.498Z,26.00
2019-04-30T17:54:14.851Z,23.87
2019-04-30T17:57:31.706Z,16.57
2019-04-30T18:00:36.108Z,20.50
2019-04-30T18:03:43.833Z,20.50
2019-04-30T18:06:51.500Z,27.30
2019-04-30T18:09:59.066Z,23.03
2019-04-30T18:13:09.089Z,27.90
2019-04-30T18:16:18.711Z,22.90
2019-04-30T18:19:49.687Z,22.20
2019-04-30T18:23:15.929Z,25.40
2019-04-30T18:26:23.702Z,22.50
2019-04-30T18:29:31.244Z,22.57
2019-04-30T18:32:38.847Z,22.90
2019-04-30T18:35:46.763Z,18.03
2019-04-30T18:38:55.555Z,26.63
2019-04-30T18:42:03.264Z,27.63
2019-04-30T18:45:11.714Z,24.60
2019-04-30T18:48:19.570Z,22.50
2019-04-30T18:51:38.514Z,20.93
2019-04-30T18:54:36.477Z,23.70
2019-04-30T18:57:56.028Z,20.90
2019-04-30T19:00:53.535Z,20.80
2019-04-30T19:04:02.605Z,27.60
2019-04-30T19:07:21.788Z,31.47
2019-04-30T19:10:48.884Z,33.47
2019-04-30T19:14:21.696Z,29.63
2019-04-30T19:17:53.917Z,20.03
2019-04-30T19:21:01.901Z,20.33
2019-04-30T19:24:10.814Z,22.97
2019-04-30T19:27:20.565Z,20.07
2019-04-30T19:30:32.477Z,20.90
2019-04-30T19:33:39.035Z,19.10
2019-04-30T19:36:49.135Z,23.33
2019-04-30T19:39:58.911Z,20.73
2019-04-30T19:43:06.261Z,21.53
2019-04-30T19:46:13.975Z,21.33
2019-04-30T19:49:22.817Z,27.37
2019-04-30T19:52:30.714Z,31.60
2019-04-30T19:55:39.388Z,29.90
2019-04-30T19:58:59.561Z,30.37
2019-04-30T20:01:56.992Z,29.60
2019-04-30T20:05:06.413Z,33.20
2019-04-30T20:08:13.972Z,33.57
2019-04-30T20:11:26.941Z,36.73
2019-04-30T20:14:39.178Z,35.17
2019-04-30T20:17:49.884Z,25.93
2019-04-30T20:21:05.311Z,21.30
2019-04-30T20:24:13.159Z,22.50
2019-04-30T20:27:22.415Z,21.57
2019-04-30T20:30:30.068Z,19.67
2019-04-30T20:33:38.891Z,25.43
2019-04-30T20:36:46.532Z,22.93
2019-04-30T20:40:02.580Z,26.67
2019-04-30T20:43:10.206Z,26.20
2019-04-30T20:46:29.778Z,25.63
2019-04-30T20:49:29.160Z,20.53
2019-04-30T20:52:38.927Z,20.97
2019-04-30T20:55:46.513Z,21.80
2019-04-30T20:58:57.792Z,21.20
2019-04-30T21:02:03.622Z,30.70
2019-04-30T21:05:11.156Z,29.80
2019-04-30T21:08:18.723Z,30.90
2019-04-30T21:11:26.250Z,31.30
2019-04-30T21:14:33.703Z,33.27
2019-04-30T21:17:41.378Z,31.57
2019-04-30T21:20:49.692Z,27.10
2019-04-30T21:23:57.403Z,25.87
2019-04-30T21:27:04.917Z,25.60
2019-04-30T21:30:13.246Z,33.43
2019-04-30T21:33:25.968Z,32.63
2019-04-30T21:36:33.527Z,31.60
2019-04-30T21:39:41.258Z,29.97
2019-04-30T21:42:48.749Z,29.53
2019-04-30T21:45:56.964Z,33.10
2019-04-30T21:49:04.488Z,36.60
2019-04-30T21:52:12.027Z,44.23
2019-04-30T21:55:19.847Z,49.37
2019-04-30T21:58:29.146Z,47.10
2019-04-30T22:01:36.985Z,48.33
2019-04-30T22:04:44.593Z,58.50
2019-04-30T22:07:52.820Z,66.97
2019-04-30T22:11:02.211Z,58.00
2019-04-30T22:14:10.515Z,53.87
2019-04-30T22:17:19.305Z,61.17
2019-04-30T22:20:29.048Z,82.40
2019-04-30T22:23:36.141Z,71.20
2019-04-30T22:26:43.562Z,71.17
2019-04-30T22:29:51.109Z,75.77
2019-04-30T22:32:59.614Z,69.50
2019-04-30T22:36:18.793Z,72.70
2019-04-30T22:39:50.539Z,70.00
2019-04-30T22:42:59.356Z,84.83
2019-04-30T22:46:11.716Z,62.87
2019-04-30T22:49:19.270Z,61.53
2019-04-30T22:52:26.817Z,63.27
2019-04-30T22:55:34.429Z,65.83
2019-04-30T22:58:41.937Z,63.47
2019-04-30T23:02:01.916Z,58.30
2019-04-30T23:05:10.762Z,62.43
2019-04-30T23:08:18.283Z,57.00
2019-04-30T23:11:25.764Z,52.37
2019-04-30T23:14:33.370Z,52.10
2019-04-30T23:17:41.423Z,60.20
2019-04-30T23:20:48.939Z,69.63
2019-04-30T23:23:56.741Z,60.37
2019-04-30T23:27:04.229Z,58.50
2019-04-30T23:30:12.998Z,56.43
2019-04-30T23:33:20.518Z,55.30
2019-04-30T23:36:27.992Z,47.20
2019-04-30T23:39:35.448Z,52.73
2019-04-30T23:42:43.135Z,48.87
2019-04-30T23:45:50.628Z,51.20
2019-04-30T23:48:58.320Z,52.63
2019-04-30T23:52:06.633Z,50.03
2019-04-30T23:55:14.234Z,54.57
2019-04-30T23:58:22.833Z,56.17
